createdAt,value
2017-10-31T12:27:54.757Z,15456
2017-10-31T12:28:57.307Z,6916
2017-10-31T12:30:00.057Z,5908
2017-10-31T12:31:01.640Z,5316
2017-10-31T12:32:04.379Z,4676
2017-10-31T12:33:07.345Z,4192
2017-10-31T12:34:09.731Z,4404
2017-10-31T12:35:12.928Z,3816
2017-10-31T12:36:15.759Z,3580
2017-10-31T12:37:18.577Z,4092
2017-10-31T12:38:21.589Z,3844
2017-10-31T12:39:24.610Z,4160
2017-10-31T12:40:27.497Z,4572
2017-10-31T12:41:30.284Z,3724
2017-10-31T12:42:33.109Z,4120
2017-10-31T12:43:36.979Z,4392
2017-10-31T12:44:39.846Z,4224
2017-10-31T12:45:42.727Z,3412
2017-10-31T12:46:45.501Z,3948
2017-10-31T12:47:47.874Z,2048
2017-10-31T12:48:51.189Z,2772
2017-10-31T12:49:54.204Z,3276
2017-10-31T12:50:57.006Z,3588
2017-10-31T12:52:00.046Z,3456
2017-10-31T12:53:02.831Z,3000
2017-10-31T12:54:05.710Z,2744
2017-10-31T12:55:08.482Z,2820
2017-10-31T12:56:11.373Z,2528
2017-10-31T12:57:14.568Z,1868
2017-10-31T12:58:17.369Z,1836
2017-10-31T12:59:20.213Z,2040
2017-10-31T13:00:23.062Z,2276
2017-10-31T13:01:25.149Z,2912
2017-10-31T13:02:28.040Z,2432
2017-10-31T13:03:30.847Z,2348
2017-10-31T13:04:33.594Z,3104
2017-10-31T13:05:36.381Z,2724
2017-10-31T13:06:39.331Z,2544
2017-10-31T13:07:42.147Z,3316
2017-10-31T13:08:45.009Z,3664
2017-10-31T13:09:47.739Z,3380
2017-10-31T13:10:50.528Z,2296
2017-10-31T13:11:53.269Z,1916
2017-10-31T13:12:56.376Z,1920
2017-10-31T13:13:58.924Z,2576
2017-10-31T13:15:02.061Z,2852
2017-10-31T13:16:04.977Z,2864
2017-10-31T13:17:07.773Z,2608
2017-10-31T13:18:09.769Z,2920
2017-10-31T13:19:12.593Z,3740
2017-10-31T13:20:15.383Z,3612
2017-10-31T13:21:18.837Z,3620
2017-10-31T13:22:21.601Z,3400
2017-10-31T13:23:25.891Z,3276
2017-10-31T13:24:30.110Z,3384
2017-10-31T13:25:33.067Z,3452
2017-10-31T13:26:36.034Z,3240
2017-10-31T13:27:39.461Z,3208
2017-10-31T13:28:42.305Z,3244
2017-10-31T13:29:45.043Z,3272
2017-10-31T13:30:47.681Z,3200
2017-10-31T13:31:50.336Z,3272
2017-10-31T13:32:53.153Z,2912
2017-10-31T13:33:56.197Z,2628
2017-10-31T13:34:58.873Z,2736
2017-10-31T13:36:00.461Z,2788
2017-10-31T13:37:03.319Z,2944
2017-10-31T13:38:06.194Z,3220
2017-10-31T13:39:09.732Z,3484
2017-10-31T13:40:12.556Z,3716
2017-10-31T13:41:15.336Z,3564
2017-10-31T13:42:18.105Z,3524
2017-10-31T13:43:20.881Z,3680
2017-10-31T13:44:23.694Z,3708
2017-10-31T13:45:26.502Z,3128
2017-10-31T13:46:29.651Z,2504
2017-10-31T13:47:32.393Z,2492
2017-10-31T13:48:35.199Z,2400
2017-10-31T13:49:38.647Z,2428
2017-10-31T13:50:41.817Z,2528
2017-10-31T13:51:45.042Z,2460
2017-10-31T13:52:47.314Z,2244
2017-10-31T13:53:50.462Z,2216
2017-10-31T13:54:53.446Z,2216
2017-10-31T13:55:56.342Z,2076
2017-10-31T13:56:59.130Z,1848
2017-10-31T13:58:01.953Z,1728
2017-10-31T13:59:04.871Z,1636
2017-10-31T14:00:08.737Z,1528
2017-10-31T14:01:11.323Z,1404
2017-10-31T14:02:14.189Z,1380
2017-10-31T14:03:17.047Z,1412
2017-10-31T14:04:19.972Z,1420
2017-10-31T14:05:22.704Z,1372
2017-10-31T14:06:25.810Z,1316
2017-10-31T14:07:28.580Z,1308
2017-10-31T14:08:31.652Z,1280
2017-10-31T14:09:34.505Z,1212
2017-10-31T14:10:37.280Z,1212
2017-10-31T14:11:40.396Z,1172
2017-10-31T14:12:43.442Z,1168
2017-10-31T14:13:47.502Z,1176
2017-10-31T14:14:49.656Z,1116
2017-10-31T14:15:52.404Z,992
2017-10-31T14:16:55.540Z,880
2017-10-31T14:17:58.372Z,808
2017-10-31T14:19:01.125Z,860
2017-10-31T14:20:04.317Z,896
2017-10-31T14:21:07.212Z,952
2017-10-31T14:22:09.977Z,1044
2017-10-31T14:23:12.742Z,1056
2017-10-31T14:24:15.541Z,1004
2017-10-31T14:25:18.349Z,984
2017-10-31T14:26:21.282Z,944
2017-10-31T14:27:24.144Z,888
